Vesper, WI

8:32 AM CST on December 08, 2016 (GMT -0600)
Village of Vesper NE | | Change Station

Elev 1109 ft 44.48 °N, 89.96 °W | Updated 12 seconds ago

Overcast
Overcast
17.1 °F
Feels Like 11 °F
N
3.6
Wind Variable Wind from West
Gusts 4.9 mph

Today
High -- | Low -- °F
--% Chance of Precip.
Yesterday
High -- | Low -- °F
Precip. -- in
Pressure 30.15 in
Visibility 2.5 miles
Clouds Overcast 2100 ft
Windchill 11 °F
Dew Point 7 °F
Humidity 63%
Rainfall 0.00 in
Snow Depth Not available.
7:23 AM 4:20 PM
Waxing Gibbous, 64% visible
SPECI KISW 081407Z AUTO 29008KT 2 1/2SM -SN BR OVC021 M09/M11 A3015 RMK AO2 P0000 T10891111
Pressure 30.15 in
Visibility 2.5 miles
Clouds Overcast 2100 ft
Windchill 11 °F
Dew Point 7 °F
Humidity 63%
Rainfall 0.00 in
Snow Depth Not available.
7:23 AM 4:20 PM
Waxing Gibbous, 64% visible
SPECI KISW 081407Z AUTO 29008KT 2 1/2SM -SN BR OVC021 M09/M11 A3015 RMK AO2 P0000 T10891111

10-Day Weather Forecast

Almanac

Astronomy

Dec. 08, 2016 Rise Set
Actual Time
Civil Twilight
Nautical Twilight
Astronomical Twilight
Moon
Length of Visible Light
Length of Day
Tomorrow will be .
, % of the Moon is Illuminated

Today's Extremes

State Highs State Lows

Community

WunderPhotos

Upload Photos

1,956,268 photos uploaded!

WunderBlog® & News

Nearby

Air Quality

  Air Quality AQ Index Pollutant
Not available.

Snow Depth

Station Depth Elevation

Earthquake Activity

City Distance Mag. Time & Date
Minimum magnitude displayed is 2.5.

Coastal Water Temperatures

Place Temperature

Stations

Nearby Weather Stations

Station Location Temp. Windchill Dew Point Humidity Wind Precip. Elev Updated Type
                   

Watches & Warnings

There are currently no watches in effect.